Time;durP1;ratioP1;P1;durP2;ratioP2;P2;SDS_P1;SDS_P2;PMS_P1;PMS_P2;Temp;Humidity;BMP_temperature;BMP_pressure;BME280_temperature;BME280_humidity;BME280_pressure;Samples;Min_cycle;Max_cycle;Signal;HPM_P1;HPM_P2
2021/05/05 00:01:23;;;;;;;13.70;1.98;;;6.40;99.90;;;;;;5006656;28;20069;-81
2021/05/05 00:03:52;;;;;;;17.77;2.47;;;6.40;99.90;;;;;;5028825;28;20072;-80
2021/05/05 00:06:23;;;;;;;12.70;2.67;;;6.40;99.90;;;;;;5024153;28;20075;-81
2021/05/05 00:08:55;;;;;;;12.27;1.90;;;6.60;99.90;;;;;;5041878;28;20354;-79
2021/05/05 00:11:31;;;;;;;;;;;;;;;;;;;;;
2021/05/05 00:13:57;;;;;;;16.38;1.70;;;6.60;99.90;;;;;;5039086;28;20427;-82
2021/05/05 00:20:05;;;;;;;16.33;2.10;;;6.60;99.90;;;;;;5037877;28;20049;-80
2021/05/05 00:22:34;;;;;;;14.73;1.98;;;6.60;99.90;;;;;;5030177;28;20045;-80
2021/05/05 00:25:00;;;;;;;13.40;1.95;;;6.50;99.90;;;;;;5025172;28;20094;-82
2021/05/05 00:27:26;;;;;;;20.70;2.33;;;6.50;99.90;;;;;;5024652;28;20061;-79
2021/05/05 00:29:52;;;;;;;19.27;3.30;;;6.50;99.90;;;;;;5038191;28;20029;-80
2021/05/05 00:32:55;;;;;;;15.93;2.55;;;6.50;99.90;;;;;;5043049;28;20041;-79
2021/05/05 00:35:21;;;;;;;10.57;2.20;;;6.50;99.90;;;;;;5028937;28;20041;-81
2021/05/05 00:37:47;;;;;;;13.63;2.00;;;6.50;99.90;;;;;;5038054;28;20047;-80
2021/05/05 00:40:13;;;;;;;15.93;2.47;;;6.60;99.90;;;;;;5030314;28;20048;-80
2021/05/05 00:42:40;;;;;;;13.68;2.15;;;6.50;99.90;;;;;;5041488;28;20412;-80
2021/05/05 00:45:12;;;;;;;21.40;3.25;;;6.60;99.90;;;;;;5031336;28;20076;-79
2021/05/05 00:47:38;;;;;;;18.30;2.60;;;6.50;99.90;;;;;;5037864;28;20065;-80
2021/05/05 00:50:13;;;;;;;16.27;2.60;;;6.50;99.90;;;;;;5038491;28;20060;-82
2021/05/05 00:52:39;;;;;;;13.73;2.00;;;6.40;99.90;;;;;;5037167;28;20103;-80
2021/05/05 00:55:06;;;;;;;12.13;2.20;;;6.50;99.90;;;;;;5021858;28;20033;-81
2021/05/05 00:57:33;;;;;;;22.63;2.63;;;6.50;99.90;;;;;;5021724;28;20170;-79
2021/05/05 00:59:59;;;;;;;15.65;2.50;;;6.60;99.90;;;;;;5041382;28;20045;-79
2021/05/05 01:02:25;;;;;;;13.02;2.33;;;6.50;99.90;;;;;;5039271;28;20036;-81
2021/05/05 01:04:51;;;;;;;12.50;2.30;;;6.60;99.90;;;;;;5040813;28;20049;-79
2021/05/05 01:07:17;;;;;;;14.63;3.05;;;6.70;99.90;;;;;;5039525;28;20032;-79
2021/05/05 01:09:45;;;;;;;15.18;2.25;;;6.60;99.90;;;;;;5039493;28;20044;-80
2021/05/05 01:12:13;;;;;;;9.88;1.92;;;6.70;99.90;;;;;;5044860;28;20055;-81
2021/05/05 01:14:39;;;;;;;17.63;3.03;;;6.60;99.90;;;;;;5040890;28;20048;-81
2021/05/05 01:17:06;;;;;;;21.05;2.50;;;6.60;99.90;;;;;;5019554;28;20061;-80
2021/05/05 01:19:32;;;;;;;18.33;2.53;;;6.60;99.90;;;;;;5037401;28;20090;-80
2021/05/05 01:21:58;;;;;;;13.75;2.17;;;6.60;99.90;;;;;;5006219;28;20137;-80
2021/05/05 01:24:24;;;;;;;13.75;1.58;;;6.60;99.90;;;;;;5042644;28;20108;-79
2021/05/05 01:26:49;;;;;;;17.48;2.83;;;6.60;99.90;;;;;;5032639;28;20053;-79
2021/05/05 01:29:15;;;;;;;14.10;2.42;;;6.60;99.90;;;;;;5041506;28;20071;-78
2021/05/05 01:31:41;;;;;;;11.60;2.35;;;6.60;99.90;;;;;;5041978;28;20108;-80
2021/05/05 01:34:07;;;;;;;16.95;3.13;;;6.60;99.90;;;;;;5039749;28;20037;-78
2021/05/05 01:36:35;;;;;;;18.13;2.85;;;6.50;99.90;;;;;;5038456;28;20393;-79
2021/05/05 01:39:04;;;;;;;12.40;2.67;;;6.50;99.90;;;;;;5041652;28;20108;-79
2021/05/05 01:41:30;;;;;;;13.43;1.90;;;6.60;99.90;;;;;;5037715;28;20346;-81
2021/05/05 01:43:55;;;;;;;12.95;2.35;;;6.60;99.90;;;;;;5031348;28;20033;-81
2021/05/05 01:46:22;;;;;;;19.15;3.10;;;6.50;99.90;;;;;;5040457;28;20063;-79
2021/05/05 01:48:48;;;;;;;20.60;2.80;;;6.50;99.90;;;;;;5040764;28;20045;-80
2021/05/05 01:51:14;;;;;;;14.77;2.35;;;6.50;99.90;;;;;;5039101;28;21591;-81
2021/05/05 01:53:40;;;;;;;17.30;2.45;;;6.60;99.90;;;;;;5044699;28;20067;-81
2021/05/05 01:56:07;;;;;;;12.85;2.20;;;6.60;99.90;;;;;;5041976;28;20037;-77
2021/05/05 01:58:34;;;;;;;12.55;2.53;;;6.70;99.90;;;;;;5055241;28;20033;-80
2021/05/05 02:01:04;;;;;;;9.95;1.77;;;6.70;99.90;;;;;;5017265;28;20044;-81
2021/05/05 02:03:30;;;;;;;16.67;2.65;;;6.70;99.90;;;;;;5054414;28;20041;-77
2021/05/05 02:05:56;;;;;;;12.65;2.58;;;6.80;99.90;;;;;;5053199;28;20468;-79
2021/05/05 02:08:22;;;;;;;13.90;2.20;;;6.70;99.90;;;;;;5051872;28;20041;-79
2021/05/05 02:10:48;;;;;;;22.65;2.88;;;6.70;99.90;;;;;;5057001;28;20041;-79
2021/05/05 02:13:14;;;;;;;20.13;2.13;;;6.70;99.90;;;;;;5042972;28;20064;-80
2021/05/05 02:15:40;;;;;;;16.70;3.25;;;6.60;99.90;;;;;;5020651;28;20030;-82
2021/05/05 02:18:10;;;;;;;17.58;2.58;;;6.50;99.90;;;;;;5019403;28;20084;-80
2021/05/05 02:20:36;;;;;;;11.75;2.75;;;6.40;99.90;;;;;;5038053;28;20045;-81
2021/05/05 02:23:02;;;;;;;14.52;2.10;;;6.40;99.90;;;;;;5041139;28;20029;-79
2021/05/05 02:25:29;;;;;;;14.15;2.72;;;6.40;99.90;;;;;;5037739;28;20065;-79
2021/05/05 02:27:55;;;;;;;20.48;2.70;;;6.40;99.90;;;;;;5019918;28;20038;-79
2021/05/05 02:30:21;;;;;;;14.65;2.13;;;6.40;99.90;;;;;;5040126;28;20044;-79
2021/05/05 02:32:49;;;;;;;17.98;2.45;;;6.30;99.90;;;;;;5023467;28;20120;-79
2021/05/05 02:35:15;;;;;;;13.13;2.40;;;6.40;99.90;;;;;;5041551;28;20037;-79
2021/05/05 02:37:43;;;;;;;16.33;2.85;;;6.30;99.90;;;;;;5039345;28;20059;-79
2021/05/05 02:40:11;;;;;;;14.15;2.63;;;6.30;99.90;;;;;;5035649;28;20432;-81
2021/05/05 02:42:37;;;;;;;11.48;2.72;;;6.30;99.90;;;;;;5025255;28;20045;-82
2021/05/05 02:45:08;;;;;;;14.95;2.30;;;6.30;99.90;;;;;;5040126;28;20041;-80
2021/05/05 02:47:34;;;;;;;7.82;1.38;;;6.20;99.90;;;;;;5041460;28;20029;-80
2021/05/05 02:50:00;;;;;;;11.60;1.95;;;6.20;99.90;;;;;;5029459;28;20091;-81
2021/05/05 02:52:26;;;;;;;8.10;2.08;;;6.10;99.90;;;;;;5029164;28;20057;-81
2021/05/05 02:54:53;;;;;;;14.77;2.03;;;6.10;99.90;;;;;;5042503;28;20037;-81
2021/05/05 02:57:18;;;;;;;10.68;2.17;;;6.00;99.90;;;;;;5024513;28;20405;-79
2021/05/05 02:59:44;;;;;;;13.45;2.10;;;6.00;99.90;;;;;;5012871;28;20499;-79
2021/05/05 03:02:10;;;;;;;21.77;2.58;;;6.00;99.90;;;;;;5036767;28;20502;-81
2021/05/05 03:04:36;;;;;;;16.13;2.40;;;6.00;99.90;;;;;;5043819;28;20053;-82
2021/05/05 03:07:02;;;;;;;16.05;2.20;;;6.00;99.90;;;;;;5047176;28;20384;-78
2021/05/05 03:09:28;;;;;;;17.40;2.47;;;6.10;99.90;;;;;;5039142;28;20040;-79
2021/05/05 03:11:58;;;;;;;10.80;2.35;;;6.10;99.90;;;;;;5048068;28;20507;-81
2021/05/05 03:14:25;;;;;;;13.80;2.53;;;6.20;99.90;;;;;;5017374;28;20127;-81
2021/05/05 03:16:56;;;;;;;14.02;2.17;;;6.10;99.90;;;;;;5043774;28;20395;-80
2021/05/05 03:19:22;;;;;;;14.20;2.05;;;6.10;99.90;;;;;;5038561;28;20029;-82
2021/05/05 03:21:48;;;;;;;20.02;2.88;;;6.20;99.90;;;;;;5023134;28;20050;-80
2021/05/05 03:24:14;;;;;;;15.40;2.47;;;6.10;99.90;;;;;;5021795;28;20463;-81
2021/05/05 03:26:40;;;;;;;15.45;1.92;;;6.10;99.90;;;;;;5041341;28;20041;-79
2021/05/05 03:29:06;;;;;;;11.57;2.22;;;6.00;99.90;;;;;;5013917;28;20037;-80
2021/05/05 03:31:34;;;;;;;8.18;1.85;;;6.00;99.90;;;;;;5043279;28;20037;-80
2021/05/05 03:34:03;;;;;;;8.85;1.40;;;5.80;99.90;;;;;;5025418;28;20037;-80
2021/05/05 03:36:29;;;;;;;8.57;1.38;;;5.80;99.90;;;;;;5041560;28;20029;-80
2021/05/05 03:38:55;;;;;;;8.27;2.05;;;5.80;99.90;;;;;;5027736;28;20047;-79
2021/05/05 03:41:21;;;;;;;8.20;1.40;;;5.80;99.90;;;;;;5041012;28;20041;-81
2021/05/05 03:43:47;;;;;;;7.72;1.33;;;5.70;99.90;;;;;;5019176;28;20428;-82
2021/05/05 03:46:13;;;;;;;13.68;1.90;;;5.70;99.90;;;;;;5009241;28;20047;-81
2021/05/05 03:48:39;;;;;;;12.63;1.65;;;5.70;99.90;;;;;;5045482;28;20111;-78
2021/05/05 03:51:06;;;;;;;12.10;1.77;;;5.80;99.90;;;;;;5036643;28;20110;-81
2021/05/05 03:53:31;;;;;;;9.52;2.00;;;5.80;99.90;;;;;;5034803;28;20045;-83
2021/05/05 03:55:58;;;;;;;11.15;2.05;;;5.90;99.90;;;;;;5034987;28;20045;-79
2021/05/05 03:58:24;;;;;;;12.82;1.83;;;6.00;99.90;;;;;;5037490;28;20034;-82
2021/05/05 04:00:50;;;;;;;12.13;2.10;;;5.80;99.90;;;;;;5042405;28;20385;-81
2021/05/05 04:03:16;;;;;;;7.80;1.60;;;5.80;99.90;;;;;;5043225;28;20051;-82
2021/05/05 04:05:42;;;;;;;9.45;1.75;;;5.90;99.90;;;;;;5041543;28;20388;-81
2021/05/05 04:08:07;;;;;;;13.38;2.50;;;5.90;99.90;;;;;;5040499;28;20454;-80
2021/05/05 04:10:33;;;;;;;14.18;2.75;;;5.90;99.90;;;;;;5042931;28;20041;-81
2021/05/05 04:13:01;;;;;;;19.27;2.75;;;5.90;99.90;;;;;;5005624;28;20053;-79
2021/05/05 04:15:26;;;;;;;15.50;2.40;;;5.90;99.90;;;;;;5043950;28;20053;-80
2021/05/05 04:17:52;;;;;;;25.40;3.35;;;5.80;99.90;;;;;;5035369;28;20034;-78
2021/05/05 04:20:20;;;;;;;20.13;2.85;;;5.80;99.90;;;;;;5046682;28;20409;-79
2021/05/05 04:22:46;;;;;;;15.18;2.40;;;5.80;99.90;;;;;;5028870;28;20040;-80
2021/05/05 04:25:14;;;;;;;10.05;1.98;;;5.80;99.90;;;;;;5039703;28;20047;-82
2021/05/05 04:27:40;;;;;;;9.98;1.85;;;5.80;99.90;;;;;;5049806;28;20073;-80
2021/05/05 04:30:07;;;;;;;10.30;2.00;;;5.80;99.90;;;;;;5041104;28;20041;-82
2021/05/05 04:32:33;;;;;;;13.80;2.45;;;5.80;99.90;;;;;;5019027;28;20033;-82
2021/05/05 04:34:59;;;;;;;25.48;3.30;;;5.70;99.90;;;;;;5027725;28;20049;-79
2021/05/05 04:37:25;;;;;;;29.90;4.03;;;5.90;99.90;;;;;;5027836;28;20060;-80
2021/05/05 04:39:51;;;;;;;24.33;3.67;;;6.00;99.90;;;;;;5031212;28;20388;-81
2021/05/05 04:42:17;;;;;;;11.27;2.55;;;6.20;99.90;;;;;;5018440;28;20041;-80
2021/05/05 04:44:43;;;;;;;20.75;3.45;;;6.30;99.90;;;;;;5032814;28;20148;-79
2021/05/05 04:47:09;;;;;;;23.00;3.38;;;6.20;99.90;;;;;;5031897;28;20444;-80
2021/05/05 04:49:35;;;;;;;24.05;2.80;;;6.30;99.90;;;;;;5019366;28;20037;-78
2021/05/05 04:52:01;;;;;;;16.17;2.70;;;6.30;99.90;;;;;;5042383;28;20032;-81
2021/05/05 04:54:26;;;;;;;18.55;3.05;;;6.40;99.90;;;;;;5035281;28;20039;-80
2021/05/05 04:56:53;;;;;;;20.77;2.78;;;6.30;99.90;;;;;;5044268;28;20040;-80
2021/05/05 04:59:19;;;;;;;8.95;1.92;;;6.30;99.90;;;;;;5049084;28;20045;-79
2021/05/05 05:01:45;;;;;;;21.88;2.63;;;6.30;99.90;;;;;;5047818;28;20034;-78
2021/05/05 05:04:13;;;;;;;10.30;2.20;;;6.40;99.90;;;;;;5046112;28;20056;-78
2021/05/05 05:06:38;;;;;;;5.85;1.17;;;6.40;99.90;;;;;;5029526;28;20061;-79
2021/05/05 05:09:04;;;;;;;11.55;1.77;;;6.30;99.90;;;;;;5046702;28;20025;-79
2021/05/05 05:11:30;;;;;;;8.65;1.65;;;6.30;99.90;;;;;;5032447;28;20068;-79
2021/05/05 05:13:56;;;;;;;6.07;1.50;;;6.30;99.90;;;;;;5031006;28;20041;-82
2021/05/05 05:16:22;;;;;;;8.38;1.55;;;6.40;99.90;;;;;;5027164;28;20124;-78
2021/05/05 05:18:49;;;;;;;17.20;2.05;;;6.30;99.90;;;;;;5047923;28;20136;-78
2021/05/05 05:21:14;;;;;;;15.07;2.42;;;6.40;99.90;;;;;;5043173;28;20033;-78
2021/05/05 05:23:40;;;;;;;12.57;1.60;;;6.40;99.90;;;;;;5040735;28;20804;-77
2021/05/05 05:26:06;;;;;;;14.63;2.40;;;6.40;99.90;;;;;;5043688;28;20040;-75
2021/05/05 05:28:32;;;;;;;16.17;2.53;;;6.40;99.90;;;;;;5040587;28;20065;-79
2021/05/05 05:30:57;;;;;;;16.75;2.55;;;6.40;99.90;;;;;;5040931;28;20480;-78
2021/05/05 05:33:25;;;;;;;14.40;2.10;;;6.50;99.90;;;;;;5038204;28;20095;-79
2021/05/05 05:35:51;;;;;;;26.30;3.55;;;6.50;99.90;;;;;;5047113;28;20049;-78
2021/05/05 05:38:17;;;;;;;19.30;3.15;;;6.50;99.90;;;;;;5039682;28;20497;-80
2021/05/05 05:40:42;;;;;;;17.92;2.90;;;6.60;99.90;;;;;;5038228;28;20392;-78
2021/05/05 05:43:08;;;;;;;16.20;2.55;;;6.60;99.90;;;;;;5040979;28;20044;-79
2021/05/05 05:45:34;;;;;;;20.50;3.20;;;6.60;99.90;;;;;;5042217;28;20056;-80
2021/05/05 05:48:00;;;;;;;23.52;3.35;;;6.60;99.90;;;;;;5021892;28;20049;-80
2021/05/05 05:50:26;;;;;;;16.30;2.97;;;6.70;99.90;;;;;;5043123;28;20034;-75
2021/05/05 05:52:52;;;;;;;20.10;3.13;;;6.70;99.90;;;;;;5024685;28;20050;-76
2021/05/05 05:55:19;;;;;;;18.90;3.17;;;6.70;99.90;;;;;;5047919;28;20043;-79
2021/05/05 05:57:48;;;;;;;14.90;2.53;;;6.70;99.90;;;;;;5023002;28;20081;-77
2021/05/05 06:00:17;;;;;;;11.73;2.10;;;6.70;99.90;;;;;;5015536;28;20461;-78
2021/05/05 06:02:43;;;;;;;18.17;2.40;;;6.90;99.90;;;;;;5033295;28;20431;-79
2021/05/05 06:05:09;;;;;;;17.30;3.05;;;6.80;99.90;;;;;;5049607;28;20076;-79
2021/05/05 06:07:35;;;;;;;17.33;2.67;;;6.90;99.90;;;;;;5048871;28;20037;-79
2021/05/05 06:10:02;;;;;;;21.45;3.42;;;7.00;99.90;;;;;;5031676;28;20052;-80
2021/05/05 06:12:28;;;;;;;19.60;2.83;;;7.00;99.90;;;;;;5019619;28;20069;-80
2021/05/05 06:14:55;;;;;;;20.10;2.70;;;7.10;99.90;;;;;;5027106;28;20060;-77
2021/05/05 06:17:21;;;;;;;14.52;2.10;;;7.10;99.90;;;;;;4999656;28;20137;-79
2021/05/05 06:19:47;;;;;;;21.60;2.83;;;7.20;99.90;;;;;;5032295;28;20116;-79
2021/05/05 06:22:13;;;;;;;18.85;2.63;;;7.10;99.90;;;;;;5038557;28;20037;-79
2021/05/05 06:24:38;;;;;;;22.85;3.55;;;7.20;99.90;;;;;;5036389;28;20399;-79
2021/05/05 06:27:06;;;;;;;16.63;3.00;;;7.30;99.90;;;;;;5031876;28;20037;-77
2021/05/05 06:29:33;;;;;;;14.93;2.80;;;7.30;99.90;;;;;;5019506;28;20103;-77
2021/05/05 06:31:59;;;;;;;18.38;2.65;;;7.30;99.90;;;;;;5046020;28;20114;-80
2021/05/05 06:34:28;;;;;;;22.00;3.65;;;7.30;99.90;;;;;;5032864;28;20038;-79
2021/05/05 06:36:53;;;;;;;18.88;3.05;;;7.20;99.90;;;;;;5046664;28;20037;-79
2021/05/05 06:39:19;;;;;;;11.75;1.85;;;7.20;99.90;;;;;;5044917;28;20535;-80
2021/05/05 06:41:45;;;;;;;20.60;3.25;;;7.30;99.90;;;;;;5023012;28;20037;-80
2021/05/05 06:44:11;;;;;;;14.40;2.78;;;7.30;99.90;;;;;;5044917;28;20069;-77
2021/05/05 06:46:42;;;;;;;15.43;2.67;;;7.40;99.90;;;;;;5034019;28;20029;-82
2021/05/05 06:49:12;;;;;;;14.23;1.85;;;7.70;99.90;;;;;;5037282;28;20065;-80
2021/05/05 06:51:39;;;;;;;11.70;2.20;;;7.50;99.90;;;;;;5035011;28;20076;-83
2021/05/05 06:54:07;;;;;;;15.10;2.80;;;7.70;99.90;;;;;;5034418;28;20037;-83
2021/05/05 06:56:33;;;;;;;24.98;2.55;;;7.80;99.90;;;;;;5010241;28;20122;-84
2021/05/05 06:59:00;;;;;;;16.65;2.70;;;7.90;99.90;;;;;;5030739;28;20048;-80
2021/05/05 07:01:25;;;;;;;9.18;1.90;;;7.80;99.90;;;;;;5025830;28;20554;-82
2021/05/05 07:03:51;;;;;;;18.05;2.90;;;7.70;99.90;;;;;;5037693;28;20037;-80
2021/05/05 07:06:17;;;;;;;9.98;2.22;;;7.70;99.90;;;;;;5045122;28;20104;-83
2021/05/05 07:08:43;;;;;;;12.13;1.90;;;7.70;99.90;;;;;;5046804;28;20516;-80
2021/05/05 07:11:09;;;;;;;13.10;2.20;;;7.80;99.90;;;;;;5027229;28;20051;-80
2021/05/05 07:13:36;;;;;;;11.68;2.15;;;7.70;99.90;;;;;;5025266;28;20045;-82
2021/05/05 07:16:01;;;;;;;13.27;2.40;;;7.70;99.90;;;;;;5024726;28;20459;-80
2021/05/05 07:19:04;;;;;;;14.43;2.22;;;7.70;99.90;;;;;;5045340;28;20124;-80
2021/05/05 07:21:50;;;;;;;18.48;2.35;;;7.80;99.90;;;;;;5027208;28;20408;-82
2021/05/05 07:24:16;;;;;;;9.43;2.13;;;7.80;99.90;;;;;;5014182;28;20053;-83
2021/05/05 07:26:42;;;;;;;11.38;2.40;;;7.70;99.90;;;;;;5015141;28;20130;-84
2021/05/05 07:29:09;;;;;;;13.65;2.25;;;7.70;99.90;;;;;;5028020;28;20039;-80
2021/05/05 07:31:35;;;;;;;20.35;3.30;;;7.60;99.90;;;;;;5044855;28;20063;-83
2021/05/05 07:34:20;;;;;;;14.00;2.88;;;7.40;99.90;;;;;;5038360;28;20504;-82
2021/05/05 07:36:48;;;;;;;;;;;7.40;99.90;;;;;;5027578;28;20045;-82
2021/05/05 07:47:03;;;;;;;17.40;2.40;;;7.30;99.90;;;;;;5057065;28;20081;-79
2021/05/05 07:50:11;;;;;;;13.13;2.58;;;7.50;99.90;;;;;;5038086;28;20052;-80
2021/05/05 07:52:39;;;;;;;12.35;2.25;;;7.70;99.90;;;;;;5061513;28;20045;-80
2021/05/05 07:55:08;;;;;;;16.08;2.35;;;8.00;99.90;;;;;;5033456;28;20045;-82
2021/05/05 07:57:34;;;;;;;21.38;2.67;;;7.80;99.90;;;;;;5043269;28;20052;-80
2021/05/05 08:00:00;;;;;;;9.65;1.90;;;8.00;99.90;;;;;;5044344;28;20641;-84
2021/05/05 08:02:26;;;;;;;13.75;2.08;;;7.90;99.90;;;;;;5053178;28;20041;-87
2021/05/05 08:04:52;;;;;;;9.57;1.38;;;7.80;99.90;;;;;;5009309;28;20052;-83
2021/05/05 08:07:22;;;;;;;11.57;1.92;;;7.70;99.90;;;;;;5046227;28;20043;-85
2021/05/05 08:09:48;;;;;;;11.57;1.80;;;7.50;99.90;;;;;;5041596;28;20030;-83
2021/05/05 08:12:15;;;;;;;7.25;1.55;;;7.60;99.90;;;;;;5012096;28;20118;-83
2021/05/05 08:14:42;;;;;;;10.05;1.50;;;7.90;99.90;;;;;;5050180;28;20044;-84
2021/05/05 08:17:09;;;;;;;7.13;1.70;;;7.90;99.90;;;;;;5013383;28;20049;-81
2021/05/05 08:19:36;;;;;;;9.98;2.05;;;7.90;99.90;;;;;;5024618;28;20506;-83
2021/05/05 08:22:02;;;;;;;8.80;1.60;;;8.00;99.90;;;;;;5026296;28;20041;-82
2021/05/05 08:24:28;;;;;;;5.05;0.80;;;7.80;99.90;;;;;;5027700;28;20135;-82
2021/05/05 08:26:56;;;;;;;7.82;2.00;;;7.80;99.90;;;;;;5033700;28;20541;-84
2021/05/05 08:29:24;;;;;;;8.90;1.67;;;7.70;99.90;;;;;;5039421;28;20037;-83
2021/05/05 08:31:50;;;;;;;7.25;1.10;;;7.80;99.90;;;;;;5027553;28;20041;-81
2021/05/05 08:34:16;;;;;;;10.88;1.80;;;7.70;99.90;;;;;;5038037;28;20039;-84
2021/05/05 08:36:42;;;;;;;9.57;1.52;;;7.80;99.90;;;;;;5032436;28;20131;-81
2021/05/05 08:39:08;;;;;;;8.02;1.40;;;8.00;99.90;;;;;;5023814;28;20683;-84
2021/05/05 08:41:38;;;;;;;11.73;1.67;;;8.00;99.90;;;;;;5043501;28;20679;-80
2021/05/05 08:44:11;;;;;;;13.57;2.45;;;8.00;99.90;;;;;;5029864;28;20052;-84
2021/05/05 08:46:41;;;;;;;10.52;1.67;;;8.20;99.90;;;;;;5021870;28;20088;-83
2021/05/05 08:49:09;;;;;;;9.70;2.40;;;8.20;99.90;;;;;;5031419;28;20032;-82
2021/05/05 08:51:35;;;;;;;7.43;1.20;;;8.00;99.90;;;;;;5042796;28;20041;-85
2021/05/05 08:54:02;;;;;;;11.85;1.50;;;8.10;99.90;;;;;;5030160;28;20061;-84
2021/05/05 08:56:35;;;;;;;12.55;1.80;;;8.00;99.90;;;;;;5031352;28;20057;-82
2021/05/05 08:59:19;;;;;;;10.23;1.70;;;8.00;99.90;;;;;;5041159;28;20040;-82
2021/05/05 09:01:46;;;;;;;10.38;1.50;;;8.10;99.90;;;;;;5009176;28;20151;-83
2021/05/05 09:04:12;;;;;;;3.92;1.17;;;8.10;99.90;;;;;;5029015;28;20045;-85
2021/05/05 09:06:58;;;;;;;6.75;1.23;;;8.10;99.90;;;;;;5042476;28;20099;-83
2021/05/05 09:09:35;;;;;;;7.40;1.10;;;8.00;99.90;;;;;;5034775;28;20040;-81
2021/05/05 09:12:34;;;;;;;7.00;1.60;;;7.90;99.90;;;;;;5039238;28;20171;-80
2021/05/05 09:15:06;;;;;;;8.45;1.42;;;7.70;99.90;;;;;;4964624;28;20394;-80
2021/05/05 09:17:39;;;;;;;8.10;1.38;;;7.60;99.90;;;;;;4959757;28;20042;-82
2021/05/05 09:20:05;;;;;;;9.52;1.20;;;7.90;99.90;;;;;;4986861;28;20046;-80
2021/05/05 09:22:44;;;;;;;7.60;1.75;;;8.00;99.90;;;;;;4966915;28;20066;-78
2021/05/05 09:25:13;;;;;;;10.07;1.30;;;8.20;99.90;;;;;;4985787;28;20509;-78
2021/05/05 09:27:40;;;;;;;5.05;1.27;;;8.30;99.90;;;;;;4965574;28;20552;-77
2021/05/05 09:30:21;;;;;;;8.23;1.33;;;8.30;99.90;;;;;;4968408;28;20058;-81
2021/05/05 09:32:54;;;;;;;11.95;1.85;;;8.30;99.90;;;;;;4981652;28;20403;-84
2021/05/05 09:35:54;;;;;;;5.18;1.17;;;8.60;99.90;;;;;;4945044;28;20141;-84
2021/05/05 09:38:20;;;;;;;10.48;1.98;;;8.60;99.90;;;;;;4950617;28;20054;-80
2021/05/05 09:40:57;;;;;;;7.90;1.45;;;8.60;99.90;;;;;;4970788;28;20038;-83
2021/05/05 09:43:24;;;;;;;10.15;2.00;;;8.30;99.90;;;;;;4968658;28;20077;-81
2021/05/05 09:45:50;;;;;;;11.45;1.80;;;8.30;99.90;;;;;;4955588;28;20086;-83
2021/05/05 09:48:24;;;;;;;9.70;2.05;;;8.40;99.90;;;;;;4970402;28;20097;-84
2021/05/05 09:51:29;;;;;;;9.25;1.98;;;8.70;99.90;;;;;;4964799;28;20042;-82
2021/05/05 09:53:55;;;;;;;6.85;1.33;;;8.60;99.90;;;;;;4990188;28;20594;-81
2021/05/05 09:56:21;;;;;;;11.85;1.85;;;8.60;99.90;;;;;;4989988;28;20062;-80
2021/05/05 09:58:47;;;;;;;9.95;1.65;;;8.80;99.90;;;;;;4992606;28;20401;-84
2021/05/05 10:01:15;;;;;;;8.75;2.00;;;9.00;99.90;;;;;;4962128;28;20481;-84
2021/05/05 10:03:50;;;;;;;11.50;2.10;;;8.90;99.90;;;;;;4994142;28;20053;-82
2021/05/05 10:06:20;;;;;;;11.10;1.95;;;9.10;99.90;;;;;;5007471;28;20196;-81
2021/05/05 10:08:50;;;;;;;16.02;2.42;;;9.00;99.90;;;;;;5009968;28;20068;-83
2021/05/05 10:11:22;;;;;;;11.23;2.28;;;8.90;99.90;;;;;;4991347;28;20157;-84
2021/05/05 10:13:52;;;;;;;11.95;2.33;;;8.80;99.90;;;;;;5011341;28;20045;-82
2021/05/05 10:16:20;;;;;;;12.50;2.33;;;9.10;99.90;;;;;;5031758;28;20491;-81
2021/05/05 10:18:47;;;;;;;17.67;2.70;;;9.00;99.90;;;;;;5025231;28;20040;-83
2021/05/05 10:21:14;;;;;;;6.80;1.48;;;9.30;99.90;;;;;;5012657;28;20129;-83
2021/05/05 10:23:42;;;;;;;10.35;2.00;;;9.40;99.90;;;;;;4998168;28;20477;-82
2021/05/05 10:26:10;;;;;;;11.70;1.98;;;9.50;99.90;;;;;;5031824;28;20400;-84
2021/05/05 10:28:37;;;;;;;18.33;2.63;;;9.50;99.90;;;;;;5021157;28;20038;-83
2021/05/05 10:31:03;;;;;;;16.35;2.72;;;9.60;99.90;;;;;;5015061;28;20033;-84
2021/05/05 10:33:36;;;;;;;15.73;2.92;;;9.40;99.90;;;;;;5019642;28;20452;-84
2021/05/05 10:36:33;;;;;;;16.70;3.15;;;9.60;99.90;;;;;;5015521;28;20048;-81
2021/05/05 10:39:01;;;;;;;13.32;2.10;;;9.30;99.90;;;;;;5005206;28;20041;-81
2021/05/05 10:41:28;;;;;;;12.63;2.42;;;8.70;99.90;;;;;;4999772;28;20057;-79
2021/05/05 10:43:58;;;;;;;10.38;1.83;;;8.60;99.90;;;;;;5015561;28;20050;-82
2021/05/05 10:46:35;;;;;;;16.35;2.60;;;8.60;99.90;;;;;;5023479;28;20416;-80
2021/05/05 10:49:16;;;;;;;20.55;3.30;;;8.90;99.90;;;;;;5018449;28;20041;-82
2021/05/05 10:51:45;;;;;;;13.43;2.00;;;9.30;99.90;;;;;;5023145;28;20112;-81
2021/05/05 10:54:18;;;;;;;9.93;2.10;;;9.40;99.90;;;;;;5006079;28;20111;-81
2021/05/05 10:57:08;;;;;;;19.73;3.10;;;9.30;99.90;;;;;;5019161;28;20037;-80
2021/05/05 11:00:12;;;;;;;7.53;1.48;;;9.40;99.90;;;;;;5006510;28;20538;-80
2021/05/05 11:02:58;;;;;;;12.45;2.08;;;9.30;99.90;;;;;;5014408;28;20544;-81
2021/05/05 11:05:28;;;;;;;15.20;2.42;;;9.40;99.90;;;;;;5008590;28;20148;-83
2021/05/05 11:07:59;;;;;;;7.15;1.40;;;9.20;99.90;;;;;;5036743;28;20453;-81
2021/05/05 11:10:31;;;;;;;8.73;1.67;;;8.30;99.90;;;;;;5044127;28;20029;-82
2021/05/05 11:13:22;;;;;;;9.85;1.50;;;8.10;99.90;;;;;;5039237;28;20033;-80
2021/05/05 11:15:47;;;;;;;11.23;1.80;;;7.80;99.90;;;;;;4969837;28;20061;-79
2021/05/05 11:18:25;;;;;;;7.82;1.60;;;7.70;99.90;;;;;;4954314;28;20791;-81
2021/05/05 11:21:25;;;;;;;8.05;1.83;;;7.90;99.90;;;;;;4953229;28;20042;-80
2021/05/05 11:23:51;;;;;;;11.13;1.77;;;8.00;99.90;;;;;;4903369;29;20044;-78
2021/05/05 11:26:17;;;;;;;14.77;2.70;;;8.00;99.90;;;;;;4910541;29;20052;-78
2021/05/05 11:29:12;;;;;;;20.83;2.83;;;8.20;99.90;;;;;;4912798;29;20547;-80
2021/05/05 11:31:47;;;;;;;11.33;2.40;;;8.50;99.90;;;;;;4902219;29;20052;-82
2021/05/05 11:34:19;;;;;;;19.35;2.92;;;8.90;99.90;;;;;;4911426;29;20064;-80
2021/05/05 11:36:46;;;;;;;30.25;4.80;;;9.30;99.90;;;;;;4910924;29;20040;-81
2021/05/05 11:39:22;;;;;;;28.65;4.40;;;9.70;99.90;;;;;;4909454;29;20048;-81
2021/05/05 11:42:04;;;;;;;16.15;2.97;;;10.30;99.90;;;;;;4895646;29;20056;-79
2021/05/05 11:44:46;;;;;;;25.35;3.78;;;10.20;99.90;;;;;;4900557;29;20097;-82
2021/05/05 11:47:17;;;;;;;17.08;3.25;;;10.20;99.90;;;;;;4908204;29;20052;-82
2021/05/05 11:49:44;;;;;;;23.08;3.50;;;10.30;99.90;;;;;;4911558;29;20040;-82
2021/05/05 11:52:25;;;;;;;20.05;4.47;;;10.40;99.90;;;;;;4922565;28;20047;-80
2021/05/05 11:54:57;;;;;;;9.27;2.17;;;10.30;99.90;;;;;;4941274;28;20146;-80
2021/05/05 11:57:30;;;;;;;9.18;1.98;;;9.30;99.90;;;;;;4969520;28;20094;-82
2021/05/05 12:00:19;;;;;;;25.25;3.63;;;9.00;99.90;;;;;;5019497;28;20156;-80
2021/05/05 12:02:50;;;;;;;15.40;2.67;;;9.10;99.90;;;;;;5046017;28;20053;-82
2021/05/05 12:05:35;;;;;;;16.25;3.03;;;9.10;99.90;;;;;;5022327;28;20430;-82
2021/05/05 12:08:04;;;;;;;18.08;3.30;;;8.70;99.90;;;;;;5047154;28;20049;-81
2021/05/05 12:10:40;;;;;;;16.02;2.92;;;8.40;99.90;;;;;;5047903;28;20116;-81
2021/05/05 12:13:17;;;;;;;16.83;2.83;;;8.60;99.90;;;;;;5041663;28;20076;-82
2021/05/05 12:16:11;;;;;;;13.43;2.70;;;8.80;99.90;;;;;;5039249;28;20155;-82
2021/05/05 12:18:42;;;;;;;18.05;2.83;;;9.30;99.90;;;;;;5033288;28;20071;-81
2021/05/05 12:21:16;;;;;;;21.00;3.47;;;9.70;99.90;;;;;;5022682;28;20049;-81
2021/05/05 12:23:48;;;;;;;13.13;2.88;;;9.90;99.90;;;;;;5040117;28;20187;-80
2021/05/05 12:26:15;;;;;;;18.63;3.05;;;9.80;99.90;;;;;;5043400;28;20037;-80
2021/05/05 12:28:42;;;;;;;12.25;2.63;;;10.00;99.90;;;;;;5039991;28;20059;-80
2021/05/05 12:31:14;;;;;;;21.33;3.45;;;10.20;99.90;;;;;;5023117;28;20033;-82
2021/05/05 12:33:42;;;;;;;16.92;2.63;;;10.00;99.90;;;;;;5036113;28;20098;-82
2021/05/05 12:36:12;;;;;;;17.35;3.40;;;10.20;99.90;;;;;;5038691;28;20045;-80
2021/05/05 12:38:42;;;;;;;18.80;3.45;;;10.20;99.90;;;;;;5012325;28;20999;-80
2021/05/05 12:41:12;;;;;;;19.50;3.60;;;10.50;99.90;;;;;;5031970;28;20068;-80
2021/05/05 12:43:39;;;;;;;19.88;3.25;;;10.70;99.90;;;;;;5027119;28;20095;-82
2021/05/05 12:46:21;;;;;;;13.40;2.83;;;10.50;99.90;;;;;;5019619;28;20131;-81
2021/05/05 12:48:47;;;;;;;15.95;2.80;;;10.30;99.90;;;;;;5045536;28;20065;-84
2021/05/05 12:51:20;;;;;;;16.92;3.85;;;10.70;99.90;;;;;;5032690;28;20049;-81
2021/05/05 12:53:58;;;;;;;14.82;2.60;;;10.70;99.90;;;;;;5026413;28;20130;-82
2021/05/05 12:56:46;;;;;;;17.98;3.45;;;10.30;99.90;;;;;;5045920;28;20041;-80
2021/05/05 12:59:41;;;;;;;15.82;2.53;;;10.40;99.90;;;;;;5028994;28;20484;-82
2021/05/05 13:02:10;;;;;;;23.77;4.20;;;10.70;99.90;;;;;;4988627;28;20104;-82
2021/05/05 13:04:42;;;;;;;15.30;3.22;;;10.60;99.90;;;;;;4972697;28;20074;-81
2021/05/05 13:07:34;;;;;;;18.20;3.35;;;10.70;99.90;;;;;;4971507;28;20054;-78
2021/05/05 13:10:17;;;;;;;13.88;2.50;;;11.00;99.90;;;;;;4987992;28;20407;-80
2021/05/05 13:13:09;;;;;;;12.35;2.60;;;10.90;99.90;;;;;;4992787;28;20068;-82
2021/05/05 13:16:00;;;;;;;17.25;2.78;;;11.20;99.90;;;;;;4988485;28;20057;-82